createdAt,value
2017-07-18T00:01:35.882Z,101660.65
2017-07-18T00:04:04.647Z,101658.02
2017-07-18T00:06:32.439Z,101659.86
2017-07-18T00:09:00.224Z,101658.44
2017-07-18T00:11:27.953Z,101662.16
2017-07-18T00:13:55.753Z,101655.45
2017-07-18T00:16:23.546Z,101651.07
2017-07-18T00:18:51.383Z,101651.87
2017-07-18T00:21:19.858Z,101647.33
2017-07-18T00:23:47.767Z,101654.69
2017-07-18T00:26:15.543Z,101655.56
2017-07-18T00:28:43.362Z,101658.42
2017-07-18T00:31:11.198Z,101648.56
2017-07-18T00:33:39.051Z,101657.55
2017-07-18T00:36:06.826Z,101651.37
2017-07-18T00:38:34.838Z,101648.41
2017-07-18T00:41:02.552Z,101650.82
2017-07-18T00:43:30.325Z,101648.17
2017-07-18T00:45:58.065Z,101647.77
2017-07-18T00:48:25.826Z,101655.02
2017-07-18T00:50:53.683Z,101654.64
2017-07-18T00:53:21.488Z,101653.66
2017-07-18T00:55:49.320Z,101646.17
2017-07-18T00:58:17.071Z,101648.44
2017-07-18T01:00:44.932Z,101646.63
2017-07-18T01:03:12.878Z,101646.88
2017-07-18T01:05:40.808Z,101639.28
2017-07-18T01:08:08.487Z,101632.95
2017-07-18T01:10:36.220Z,101642.45
2017-07-18T01:13:03.919Z,101642.05
2017-07-18T01:15:31.657Z,101637.03
2017-07-18T01:17:59.369Z,101633.70
2017-07-18T01:20:27.201Z,101642.00
2017-07-18T01:22:55.004Z,101633.54
2017-07-18T01:25:22.748Z,101635.99
2017-07-18T01:27:50.538Z,101639.33
2017-07-18T01:30:18.316Z,101631.79
2017-07-18T01:32:46.086Z,101628.80
2017-07-18T01:35:13.901Z,101622.52
2017-07-18T01:37:41.686Z,101624.15
2017-07-18T01:40:09.436Z,101621.84
2017-07-18T01:42:37.160Z,101621.22
2017-07-18T01:45:04.981Z,101620.81
2017-07-18T01:47:32.693Z,101622.50
2017-07-18T01:50:00.440Z,101614.50
2017-07-18T01:52:28.142Z,101616.41
2017-07-18T01:54:55.941Z,101610.69
2017-07-18T01:57:23.815Z,101610.94
2017-07-18T01:59:51.713Z,101610.94
2017-07-18T02:02:19.528Z,101609.08
2017-07-18T02:04:47.372Z,101605.72
2017-07-18T02:07:15.107Z,101601.82
2017-07-18T02:09:42.843Z,101603.63
2017-07-18T02:12:10.549Z,101597.67
2017-07-18T02:14:38.336Z,101599.05
2017-07-18T02:17:06.070Z,101598.52
2017-07-18T02:19:34.075Z,101598.59
2017-07-18T02:22:01.936Z,101590.43
2017-07-18T02:24:29.762Z,101588.34
2017-07-18T02:26:57.618Z,101596.59
2017-07-18T02:29:25.461Z,101601.35
2017-07-18T02:31:53.253Z,101597.09
2017-07-18T02:34:21.121Z,101591.00
2017-07-18T02:36:48.916Z,101590.39
2017-07-18T02:39:16.701Z,101589.19
2017-07-18T02:41:44.425Z,101588.58
2017-07-18T02:44:12.163Z,101589.05
2017-07-18T02:46:40.002Z,101590.67
2017-07-18T02:49:07.926Z,101588.88
2017-07-18T02:51:35.844Z,101578.61
2017-07-18T02:54:03.739Z,101583.61
2017-07-18T02:56:31.516Z,101580.94
2017-07-18T02:58:59.319Z,101578.81
2017-07-18T03:01:27.171Z,101572.13
2017-07-18T03:03:54.998Z,101578.60
2017-07-18T03:06:22.839Z,101570.27
2017-07-18T03:08:50.585Z,101571.15
2017-07-18T03:11:18.539Z,101572.77
2017-07-18T03:13:46.335Z,101574.20
2017-07-18T03:16:14.062Z,101579.56
2017-07-18T03:18:41.787Z,101580.20
2017-07-18T03:21:09.502Z,101577.66
2017-07-18T03:23:37.173Z,101575.43
2017-07-18T03:26:04.973Z,101586.55
2017-07-18T03:28:32.676Z,101583.80
2017-07-18T03:31:00.424Z,101581.23
2017-07-18T03:33:28.293Z,101577.67
2017-07-18T03:35:56.153Z,101580.13
2017-07-18T03:38:24.054Z,101581.89
2017-07-18T03:40:51.959Z,101580.95
2017-07-18T03:43:19.922Z,101579.05
2017-07-18T03:45:47.670Z,101576.08
2017-07-18T03:48:15.467Z,101576.45
2017-07-18T03:50:43.326Z,101573.38
2017-07-18T03:53:11.098Z,101573.65
2017-07-18T03:55:38.889Z,101577.59
2017-07-18T03:58:06.677Z,101576.63
2017-07-18T04:00:34.445Z,101577.03
2017-07-18T04:03:02.415Z,101575.95
2017-07-18T04:05:30.234Z,101585.02
2017-07-18T04:07:58.131Z,101584.88
2017-07-18T04:10:25.938Z,101579.34
2017-07-18T04:12:53.736Z,101582.02
2017-07-18T04:15:21.413Z,101586.49
2017-07-18T04:17:49.174Z,101589.30
2017-07-18T04:20:16.920Z,101585.52
2017-07-18T04:22:44.629Z,101589.30
2017-07-18T04:25:12.351Z,101592.55
2017-07-18T04:27:40.250Z,101592.13
2017-07-18T04:30:08.023Z,101592.93
2017-07-18T04:32:35.926Z,101597.41
2017-07-18T04:35:03.910Z,101593.77
2017-07-18T04:37:31.704Z,101587.02
2017-07-18T04:39:59.690Z,101595.91
2017-07-18T04:42:27.428Z,101590.88
2017-07-18T04:44:55.370Z,101589.08
2017-07-18T04:47:23.159Z,101589.02
2017-07-18T04:49:51.048Z,101591.58
2017-07-18T04:52:18.953Z,101589.87
2017-07-18T04:54:46.640Z,101588.52
2017-07-18T04:57:14.537Z,101592.30
2017-07-18T04:59:42.484Z,101596.48
2017-07-18T05:02:10.420Z,101594.61
2017-07-18T05:04:38.154Z,101588.52
2017-07-18T05:07:05.878Z,101591.05
2017-07-18T05:09:33.725Z,101597.60
2017-07-18T05:12:01.452Z,101592.52
2017-07-18T05:14:29.135Z,101582.19
2017-07-18T05:16:56.883Z,101584.02
2017-07-18T05:19:24.660Z,101583.17
2017-07-18T05:21:52.382Z,101586.84
2017-07-18T05:24:20.081Z,101586.94
2017-07-18T05:26:47.830Z,101579.98
2017-07-18T05:29:15.550Z,101589.25
2017-07-18T05:31:43.357Z,101585.74
2017-07-18T05:34:11.049Z,101583.80
2017-07-18T05:36:38.769Z,101577.03
2017-07-18T05:39:06.497Z,101587.52
2017-07-18T05:41:34.289Z,101585.31
2017-07-18T05:44:02.017Z,101588.89
2017-07-18T05:46:29.765Z,101590.94
2017-07-18T05:48:57.588Z,101581.59
2017-07-18T05:51:25.341Z,101580.41
2017-07-18T05:53:53.059Z,101579.66
2017-07-18T05:56:20.760Z,101573.59
2017-07-18T05:58:48.485Z,101582.45
2017-07-18T06:01:16.157Z,101582.76
2017-07-18T06:03:43.872Z,101582.84
2017-07-18T06:06:11.541Z,101582.37
2017-07-18T06:08:39.271Z,101577.08
2017-07-18T06:11:06.924Z,101575.30
2017-07-18T06:13:34.641Z,101577.72
2017-07-18T06:16:02.277Z,101572.68
2017-07-18T06:18:30.002Z,101571.67
2017-07-18T06:20:57.797Z,101575.47
2017-07-18T06:23:25.566Z,101570.86
2017-07-18T06:25:53.263Z,101564.89
2017-07-18T06:28:20.951Z,101566.37
2017-07-18T06:30:48.853Z,101564.38
2017-07-18T06:33:16.548Z,101559.55
2017-07-18T06:35:44.215Z,101560.99
2017-07-18T06:38:11.963Z,101560.77
2017-07-18T06:40:39.708Z,101556.59
2017-07-18T06:43:07.510Z,101556.05
2017-07-18T06:45:35.333Z,101555.19
2017-07-18T06:48:03.095Z,101554.96
2017-07-18T06:50:30.834Z,101552.16
2017-07-18T06:52:58.682Z,101546.69
2017-07-18T06:55:26.479Z,101546.09
2017-07-18T06:57:54.236Z,101548.77
2017-07-18T07:00:22.323Z,101542.30
2017-07-18T07:02:49.974Z,101540.41
2017-07-18T07:05:17.736Z,101533.07
2017-07-18T07:07:45.367Z,101537.02
2017-07-18T07:10:13.070Z,101541.50
2017-07-18T07:12:40.705Z,101538.05
2017-07-18T07:15:08.393Z,101540.11
2017-07-18T07:17:36.068Z,101534.30
2017-07-18T07:20:03.776Z,101538.49
2017-07-18T07:22:32.093Z,101530.70
2017-07-18T07:24:59.761Z,101529.72
2017-07-18T07:27:27.411Z,101530.39
2017-07-18T07:29:55.761Z,101533.14
2017-07-18T07:32:23.428Z,101528.82
2017-07-18T07:34:51.535Z,101525.49
2017-07-18T07:37:19.287Z,101532.13
2017-07-18T07:39:46.909Z,101523.90
2017-07-18T07:42:14.566Z,101527.31
2017-07-18T07:44:42.340Z,101526.45
2017-07-18T07:47:09.982Z,101524.77
2017-07-18T07:49:37.624Z,101519.84
2017-07-18T07:52:05.525Z,101520.05
2017-07-18T07:54:33.790Z,101524.35
2017-07-18T07:57:01.845Z,101520.47
2017-07-18T07:59:29.573Z,101516.22
2017-07-18T08:01:57.344Z,101515.03
2017-07-18T08:04:25.173Z,101502.33
2017-07-18T08:06:52.836Z,101503.16
2017-07-18T08:09:20.488Z,101506.75
2017-07-18T08:11:48.180Z,101507.80
2017-07-18T08:14:15.909Z,101508.63
2017-07-18T08:16:43.753Z,101504.09
2017-07-18T08:19:11.457Z,101501.15
2017-07-18T08:21:39.442Z,101496.36
2017-07-18T08:24:07.235Z,101493.48
2017-07-18T08:26:35.017Z,101485.95
2017-07-18T08:29:02.647Z,101477.14
2017-07-18T08:31:30.292Z,101486.22
2017-07-18T08:33:57.943Z,101482.77
2017-07-18T08:36:25.594Z,101472.58
2017-07-18T08:38:53.192Z,101471.23
2017-07-18T08:41:20.881Z,101467.47
2017-07-18T08:43:48.500Z,101467.27
2017-07-18T08:46:16.339Z,101469.52
2017-07-18T08:48:44.018Z,101467.22
2017-07-18T08:51:11.672Z,101473.31
2017-07-18T08:53:39.308Z,101470.36
2017-07-18T08:56:07.034Z,101469.11
2017-07-18T08:58:34.656Z,101475.92
2017-07-18T09:01:02.302Z,101470.94
2017-07-18T09:03:29.922Z,101469.64
2017-07-18T09:05:57.699Z,101471.88
2017-07-18T09:08:25.330Z,101469.84
2017-07-18T09:10:53.012Z,101469.08
2017-07-18T09:13:20.631Z,101465.70
2017-07-18T09:15:48.287Z,101458.94
2017-07-18T09:18:15.953Z,101457.59
2017-07-18T09:20:43.714Z,101452.55
2017-07-18T09:23:12.473Z,101457.78
2017-07-18T09:25:40.119Z,101451.48
2017-07-18T09:28:07.735Z,101451.78
2017-07-18T09:30:35.441Z,101447.18
2017-07-18T09:33:03.390Z,101452.16
2017-07-18T09:35:31.021Z,101447.09
2017-07-18T09:37:58.695Z,101444.41
2017-07-18T09:40:26.371Z,101438.39
2017-07-18T09:42:54.370Z,101436.85
2017-07-18T09:45:22.035Z,101436.69
2017-07-18T09:47:49.948Z,101436.84
2017-07-18T09:50:17.772Z,101427.31
2017-07-18T09:52:45.687Z,101419.84
2017-07-18T09:55:13.500Z,101424.16
2017-07-18T09:57:41.181Z,101422.14
2017-07-18T10:00:08.921Z,101422.22
2017-07-18T10:02:36.677Z,101410.13
2017-07-18T10:05:04.420Z,101413.73
2017-07-18T10:07:32.188Z,101409.36
2017-07-18T10:09:59.863Z,101412.22
2017-07-18T10:12:27.667Z,101412.01
2017-07-18T10:14:55.298Z,101413.15
2017-07-18T10:17:23.126Z,101413.05
2017-07-18T10:19:50.909Z,101401.06
2017-07-18T10:22:18.687Z,101396.58
2017-07-18T10:24:46.343Z,101399.52
2017-07-18T10:27:13.982Z,101399.72
2017-07-18T10:29:41.733Z,101401.52
2017-07-18T10:32:09.432Z,101398.12
2017-07-18T10:34:37.135Z,101392.89
2017-07-18T10:37:04.797Z,101388.58
2017-07-18T10:39:32.602Z,101393.20
2017-07-18T10:42:00.420Z,101386.91
2017-07-18T10:44:28.119Z,101387.19
2017-07-18T10:46:55.729Z,101383.80
2017-07-18T10:49:23.386Z,101383.76
2017-07-18T10:51:51.093Z,101381.32
2017-07-18T10:54:18.734Z,101372.33
2017-07-18T10:56:46.340Z,101373.85
2017-07-18T10:59:14.066Z,101368.40
2017-07-18T11:01:41.688Z,101357.20
2017-07-18T11:04:09.340Z,101350.82
2017-07-18T11:06:36.964Z,101351.73
2017-07-18T11:09:04.711Z,101346.72
2017-07-18T11:11:32.333Z,101344.53
2017-07-18T11:13:59.981Z,101341.87
2017-07-18T11:16:27.595Z,101337.68
2017-07-18T11:18:55.320Z,101337.02
2017-07-18T11:21:22.936Z,101334.41
2017-07-18T11:23:50.577Z,101327.30
2017-07-18T11:26:18.238Z,101320.77
2017-07-18T11:28:45.865Z,101324.73
2017-07-18T11:31:13.556Z,101320.77
2017-07-18T11:33:41.382Z,101314.73
2017-07-18T11:36:09.067Z,101311.66
2017-07-18T11:38:36.834Z,101307.71
2017-07-18T11:41:04.959Z,101304.86
2017-07-18T11:43:32.838Z,101304.58
2017-07-18T11:46:00.874Z,101301.22
2017-07-18T11:48:29.064Z,101304.47
2017-07-18T11:50:56.961Z,101298.13
2017-07-18T11:53:24.808Z,101297.73
2017-07-18T11:55:52.830Z,101293.58
2017-07-18T11:58:21.105Z,101294.64
2017-07-18T12:00:48.959Z,101288.55
2017-07-18T12:03:17.229Z,101289.55
2017-07-18T12:05:45.037Z,101294.02
2017-07-18T12:08:13.170Z,101284.69
2017-07-18T12:10:41.090Z,101281.19
2017-07-18T12:13:09.247Z,101277.91
2017-07-18T12:15:37.306Z,101275.34
2017-07-18T12:18:05.243Z,101274.50
2017-07-18T12:20:33.306Z,101272.76
2017-07-18T12:23:01.146Z,101272.22
2017-07-18T12:25:28.808Z,101266.13
2017-07-18T12:27:56.904Z,101261.81
2017-07-18T12:30:24.741Z,101256.97
2017-07-18T12:32:53.387Z,101256.02
2017-07-18T12:35:21.475Z,101253.35
2017-07-18T12:37:49.302Z,101247.88
2017-07-18T12:40:17.145Z,101244.41
2017-07-18T12:42:44.899Z,101242.97
2017-07-18T12:45:14.131Z,101240.98
2017-07-18T12:47:42.292Z,101234.38
2017-07-18T12:50:10.138Z,101236.92
2017-07-18T12:52:37.875Z,101228.23
2017-07-18T12:55:05.697Z,101222.05
2017-07-18T12:57:33.563Z,101218.78
2017-07-18T13:00:01.413Z,101212.91
2017-07-18T13:02:29.146Z,101216.78
2017-07-18T13:04:56.794Z,101214.23
2017-07-18T13:07:24.473Z,101206.92
2017-07-18T13:09:52.124Z,101203.11
2017-07-18T13:12:19.820Z,101206.47
2017-07-18T13:14:47.483Z,101200.42
2017-07-18T13:17:15.187Z,101200.91
2017-07-18T13:19:42.849Z,101199.20
2017-07-18T13:22:10.546Z,101190.14
2017-07-18T13:24:38.219Z,101190.91
2017-07-18T13:27:05.925Z,101185.97
2017-07-18T13:29:33.693Z,101185.65
2017-07-18T13:32:01.738Z,101184.47
2017-07-18T13:34:29.774Z,101177.73
2017-07-18T13:36:58.039Z,101178.79
2017-07-18T13:39:26.083Z,101169.58
2017-07-18T13:41:54.345Z,101168.30
2017-07-18T13:44:22.179Z,101162.89
2017-07-18T13:46:50.661Z,101163.05
2017-07-18T13:49:19.329Z,101161.73
2017-07-18T13:51:49.801Z,101153.16
2017-07-18T13:54:18.275Z,101155.32
2017-07-18T13:56:46.730Z,101153.20
2017-07-18T13:59:15.520Z,101152.51
2017-07-18T14:01:53.914Z,101147.97
2017-07-18T14:04:22.299Z,101141.99
2017-07-18T14:06:51.043Z,101141.43
2017-07-18T14:09:19.479Z,101130.19
2017-07-18T14:11:48.789Z,101133.17
2017-07-18T14:14:17.293Z,101130.24
2017-07-18T14:16:45.920Z,101123.62
2017-07-18T14:19:16.874Z,101128.42
2017-07-18T14:21:47.104Z,101126.38
2017-07-18T14:24:16.288Z,101120.09
2017-07-18T14:26:44.292Z,101117.35
2017-07-18T14:32:01.786Z,101107.80
2017-07-18T14:57:26.743Z,101081.49
2017-07-18T15:00:02.440Z,101077.69
2017-07-18T15:08:31.235Z,101063.73
2017-07-18T15:31:08.140Z,101023.59
2017-07-18T15:42:11.991Z,101018.22
2017-07-18T16:36:29.190Z,100972.33
2017-07-18T16:39:15.816Z,100974.55
2017-07-18T16:58:16.089Z,100963.73
2017-07-18T17:00:50.531Z,100967.91
2017-07-18T17:03:19.495Z,100968.36
2017-07-18T17:05:48.860Z,100968.94
2017-07-18T17:08:16.864Z,100967.94
2017-07-18T17:10:44.947Z,100972.50
2017-07-18T17:13:13.136Z,100974.88
2017-07-18T17:15:42.693Z,100969.93
2017-07-18T17:18:10.894Z,100967.73
2017-07-18T17:20:39.162Z,100969.27
2017-07-18T17:23:07.332Z,100960.82
2017-07-18T20:07:17.991Z,100916.91
2017-07-18T20:09:45.608Z,100923.91
2017-07-18T20:12:13.255Z,100923.80
2017-07-18T20:14:40.872Z,100921.48
2017-07-18T20:17:08.552Z,100917.05
2017-07-18T20:19:36.178Z,100909.20
2017-07-18T20:22:03.854Z,100916.05
2017-07-18T20:24:31.451Z,100917.91
2017-07-18T20:26:59.075Z,100917.02
2017-07-18T20:29:26.674Z,100911.25
2017-07-18T20:31:54.310Z,100907.13
2017-07-18T20:34:21.957Z,100898.33
2017-07-18T20:36:49.554Z,100901.23
2017-07-18T20:39:17.222Z,100898.96
2017-07-18T20:41:44.940Z,100888.14
2017-07-18T20:44:12.558Z,100892.89
2017-07-18T20:46:40.202Z,100895.55
2017-07-18T20:49:47.142Z,100891.91
2017-07-18T20:52:14.803Z,100897.42
2017-07-18T20:54:42.398Z,100890.80
2017-07-18T20:57:10.036Z,100887.10
2017-07-18T20:59:37.703Z,100893.72
2017-07-18T21:02:05.362Z,100897.11
2017-07-18T21:04:33.002Z,100889.53
2017-07-18T21:07:00.815Z,100888.26
2017-07-18T21:09:28.643Z,100889.83
2017-07-18T21:11:56.246Z,100881.98
2017-07-18T21:14:24.049Z,100880.42
2017-07-18T21:16:51.691Z,100880.47
2017-07-18T21:19:19.400Z,100881.19
2017-07-18T21:21:47.022Z,100878.83
2017-07-18T21:24:14.651Z,100875.39
2017-07-18T21:26:42.243Z,100873.23
2017-07-18T21:29:09.881Z,100874.66
2017-07-18T21:31:37.496Z,100875.98
2017-07-18T21:34:05.074Z,100865.26
2017-07-18T21:36:32.706Z,100874.22
2017-07-18T21:39:00.435Z,100870.39
2017-07-18T21:41:28.276Z,100873.83
2017-07-18T21:43:55.884Z,100868.17
2017-07-18T21:46:23.519Z,100864.50
2017-07-18T21:48:51.123Z,100860.20
2017-07-18T21:51:18.778Z,100863.44
2017-07-18T21:53:46.380Z,100857.03
2017-07-18T21:56:13.989Z,100856.31
2017-07-18T21:58:41.634Z,100854.37
2017-07-18T22:01:09.223Z,100850.96
2017-07-18T22:03:36.839Z,100859.05
2017-07-18T22:06:04.440Z,100857.75
2017-07-18T22:08:32.094Z,100851.61
2017-07-18T22:10:59.744Z,100857.11
2017-07-18T22:13:27.331Z,100859.70
2017-07-18T22:15:54.981Z,100854.52
2017-07-18T22:18:22.571Z,100862.88
2017-07-18T22:20:50.185Z,100861.22
2017-07-18T22:23:17.786Z,100855.66
2017-07-18T22:25:45.422Z,100847.80
2017-07-18T22:28:13.026Z,100843.86
2017-07-18T22:30:40.750Z,100847.28
2017-07-18T22:33:08.350Z,100848.55
2017-07-18T22:35:36.026Z,100844.80
2017-07-18T22:38:03.631Z,100844.53
2017-07-18T22:40:31.285Z,100841.55
2017-07-18T22:42:58.882Z,100843.24
2017-07-18T22:45:26.481Z,100838.95
2017-07-18T22:47:54.106Z,100839.72
2017-07-18T22:50:21.701Z,100834.30
2017-07-18T22:52:49.334Z,100835.74
2017-07-18T22:55:16.933Z,100836.66
2017-07-18T22:57:44.578Z,100842.04
2017-07-18T23:00:12.211Z,100844.83
2017-07-18T23:02:39.829Z,100836.42
2017-07-18T23:05:07.416Z,100835.16
2017-07-18T23:07:35.068Z,100832.54
2017-07-18T23:10:02.670Z,100828.20
2017-07-18T23:12:30.342Z,100829.48
2017-07-18T23:14:57.937Z,100823.22
2017-07-18T23:17:25.590Z,100817.99
2017-07-18T23:19:53.198Z,100821.93
2017-07-18T23:22:20.790Z,100836.00
2017-07-18T23:24:48.414Z,100828.50
2017-07-18T23:27:16.010Z,100828.78
2017-07-18T23:29:43.634Z,100824.75
2017-07-18T23:32:11.226Z,100824.41
2017-07-18T23:34:38.858Z,100822.25
2017-07-18T23:37:06.443Z,100820.29
2017-07-18T23:39:34.084Z,100818.74
2017-07-18T23:42:01.718Z,100813.89
2017-07-18T23:44:29.377Z,100810.38
2017-07-18T23:46:56.973Z,100810.47
2017-07-18T23:49:24.590Z,100815.42
2017-07-18T23:51:52.220Z,100810.03
2017-07-18T23:54:19.843Z,100805.09
2017-07-18T23:56:47.498Z,100799.98
2017-07-18T23:59:15.159Z,100796.80
